This is the latest recevied weather packets stored in our database for station/object YC0ACE-13. If no packets are shown the sender has not sent any weather packets the latest 10 day(s).
| Time | Temp. | Humidity | Pressure | Rain* | Wind** | Luminosity | Snow |
|---|---|---|---|---|---|---|---|
| 1777539024 | 30.56° C | 74% | 1012.9 hPa | 0 mm | - | 127 W/m² | - |
| 1777538725 | 30.56° C | 73% | 1012.9 hPa | 0 mm | - | 152 W/m² | - |
| 1777538425 | 30.56° C | 74% | 1012.9 hPa | 0 mm | - | 199 W/m² | - |
| 1777538126 | 30.56° C | 73% | 1013.2 hPa | 0 mm | - | 174 W/m² | - |
| 1777537825 | 30.56° C | 74% | 1012.9 hPa | 0 mm | - | 177 W/m² | - |
| 1777537525 | 30.56° C | 74% | 1012.9 hPa | 0 mm | - | 161 W/m² | - |
| 1777537224 | 30.56° C | 75% | 1013.2 hPa | 0 mm | - | 180 W/m² | - |
| 1777536925 | 30.56° C | 76% | 1012.9 hPa | 0 mm | - | 190 W/m² | - |
| 1777536625 | 30.56° C | 77% | 1012.9 hPa | 0 mm | - | 190 W/m² | - |
| 1777536325 | 30° C | 80% | 1012.9 hPa | 0 mm | - | 379 W/m² | - |
| 1777536025 | 30° C | 82% | 1013.2 hPa | 0 mm | - | 280 W/m² | - |
| 1777535725 | 30° C | 84% | 1013.2 hPa | 1.27 mm | - | 258 W/m² | - |
| 1777535424 | 29.44° C | 84% | 1013.2 hPa | 1.27 mm | - | 208 W/m² | - |
| 1777535124 | 29.44° C | 84% | 1013.2 hPa | 0 mm | - | 180 W/m² | - |
| 1777534824 | 29.44° C | 85% | 1013.2 hPa | 0 mm | - | 184 W/m² | - |
| 1777534524 | 28.89° C | 84% | 1013.2 hPa | 0 mm | - | 185 W/m² | - |
| 1777534225 | 28.89° C | 85% | 1013.2 hPa | 0 mm | - | 212 W/m² | - |
| 1777533925 | 29.44° C | 84% | 1013.2 hPa | 0 mm | - | 184 W/m² | - |
| 1777533624 | 30° C | 80% | 1013.2 hPa | 0 mm | - | 145 W/m² | - |
| 1777533325 | 30.56° C | 76% | 1013.2 hPa | 0 mm | - | 140 W/m² | - |
| 1777533025 | 30.56° C | 75% | 1013.5 hPa | 0 mm | - | 146 W/m² | - |
| 1777532724 | 31.11° C | 73% | 1013.5 hPa | 0 mm | - | 186 W/m² | - |
| 1777532425 | 31.11° C | 72% | 1013.2 hPa | 0 mm | - | 206 W/m² | - |
| 1777532125 | 31.11° C | 70% | 1013.2 hPa | 0 mm | - | 178 W/m² | - |
| 1777531825 | 31.67° C | 70% | 1013.2 hPa | 0 mm | - | 148 W/m² | - |
* Rain latest hour (hover to see other rain measurements)
** Current wind speed in m/s (hover to see current wind gust speed)